createdAt,value
2023-04-03T00:00:00.722Z,511.00
2023-04-03T00:01:00.788Z,505.00
2023-04-03T00:02:00.893Z,508.00
2023-04-03T00:03:00.941Z,512.00
2023-04-03T00:04:00.990Z,507.00
2023-04-03T00:05:01.074Z,509.00
2023-04-03T00:06:01.100Z,510.00
2023-04-03T00:07:01.181Z,512.00
2023-04-03T00:08:01.191Z,507.00
2023-04-03T00:09:01.253Z,507.00
2023-04-03T00:10:01.303Z,512.00
2023-04-03T00:11:01.339Z,507.00
2023-04-03T00:12:01.457Z,507.00
2023-04-03T00:13:01.482Z,508.00
2023-04-03T00:14:01.541Z,509.00
2023-04-03T00:15:01.608Z,510.00
2023-04-03T00:16:01.716Z,510.00
2023-04-03T00:17:01.777Z,512.00
2023-04-03T00:18:01.870Z,513.00
2023-04-03T00:19:01.882Z,517.00
2023-04-03T00:20:01.935Z,515.00
2023-04-03T00:21:02.028Z,509.00
2023-04-03T00:22:02.053Z,511.00
2023-04-03T00:23:02.065Z,509.00
2023-04-03T00:24:02.142Z,509.00
2023-04-03T00:25:02.212Z,513.00
2023-04-03T00:26:02.237Z,515.00
2023-04-03T00:27:02.296Z,511.00
2023-04-03T00:28:02.372Z,513.00
2023-04-03T00:29:02.443Z,516.00
2023-04-03T00:30:02.477Z,514.00
2023-04-03T00:31:02.546Z,511.00
2023-04-03T00:32:02.589Z,509.00
2023-04-03T00:33:02.718Z,513.00
2023-04-03T00:34:02.700Z,515.00
2023-04-03T00:35:02.759Z,512.00
2023-04-03T00:36:02.924Z,512.00
2023-04-03T00:37:02.957Z,513.00
2023-04-03T00:38:02.945Z,510.00
2023-04-03T00:39:03.012Z,512.00
2023-04-03T00:40:03.054Z,515.00
2023-04-03T00:41:03.117Z,513.00
2023-04-03T00:42:03.182Z,510.00
2023-04-03T00:43:03.226Z,519.00
2023-04-03T00:44:03.284Z,515.00
2023-04-03T00:45:03.300Z,512.00
2023-04-03T00:46:03.417Z,513.00
2023-04-03T00:47:03.406Z,509.00
2023-04-03T00:48:03.528Z,516.00
2023-04-03T00:49:03.482Z,512.00
2023-04-03T00:50:03.531Z,516.00
2023-04-03T00:51:03.597Z,513.00
2023-04-03T00:52:03.617Z,514.00
2023-04-03T00:53:03.643Z,515.00
2023-04-03T00:54:03.713Z,508.00
2023-04-03T00:55:03.710Z,511.00
2023-04-03T00:56:03.764Z,512.00
2023-04-03T00:57:03.797Z,513.00
2023-04-03T00:58:03.853Z,511.00
2023-04-03T00:59:03.861Z,514.00
2023-04-03T01:00:03.917Z,512.00
2023-04-03T01:01:03.907Z,513.00
2023-04-03T01:02:03.993Z,512.00
2023-04-03T01:03:04.034Z,509.00
2023-04-03T01:04:04.163Z,511.00
2023-04-03T01:05:04.044Z,515.00
2023-04-03T01:06:04.052Z,514.00
2023-04-03T01:07:04.069Z,515.00
2023-04-03T01:08:04.052Z,514.00
2023-04-03T01:09:04.060Z,512.00
2023-04-03T01:10:04.122Z,512.00
2023-04-03T01:11:04.181Z,511.00
2023-04-03T01:12:04.185Z,517.00
2023-04-03T01:13:04.244Z,517.00
2023-04-03T01:14:04.306Z,518.00
2023-04-03T01:15:04.319Z,517.00
2023-04-03T01:16:04.412Z,510.00
2023-04-03T01:17:04.386Z,514.00
2023-04-03T01:18:04.475Z,510.00
2023-04-03T01:19:04.471Z,509.00
2023-04-03T01:20:04.550Z,506.00
2023-04-03T01:21:04.619Z,510.00
2023-04-03T01:22:04.672Z,512.00
2023-04-03T01:23:04.777Z,512.00
2023-04-03T01:24:04.787Z,512.00
2023-04-03T01:25:04.897Z,513.00
2023-04-03T01:26:04.793Z,513.00
2023-04-03T01:27:04.806Z,517.00
2023-04-03T01:28:04.868Z,512.00
2023-04-03T01:29:04.871Z,515.00
2023-04-03T01:30:04.877Z,518.00
2023-04-03T01:31:04.918Z,514.00
2023-04-03T01:32:04.917Z,517.00
2023-04-03T01:33:04.954Z,512.00
2023-04-03T01:34:04.896Z,517.00
2023-04-03T01:35:04.910Z,514.00
2023-04-03T01:36:05.050Z,515.00
2023-04-03T01:37:05.043Z,516.00
2023-04-03T01:38:04.991Z,513.00
2023-04-03T01:39:05.028Z,516.00
2023-04-03T01:40:05.061Z,516.00
2023-04-03T01:41:05.125Z,516.00
2023-04-03T01:42:05.155Z,516.00
2023-04-03T01:43:05.224Z,513.00
2023-04-03T01:44:05.255Z,514.00
2023-04-03T01:45:05.246Z,514.00
2023-04-03T01:46:05.368Z,515.00
2023-04-03T01:47:05.290Z,509.00
2023-04-03T01:48:05.338Z,513.00
2023-04-03T01:49:05.318Z,514.00
2023-04-03T01:50:05.333Z,514.00
2023-04-03T01:51:05.312Z,513.00
2023-04-03T01:52:05.327Z,516.00
2023-04-03T01:53:05.323Z,514.00
2023-04-03T01:54:05.353Z,520.00
2023-04-03T01:55:05.323Z,511.00
2023-04-03T01:56:05.308Z,515.00
2023-04-03T01:57:05.357Z,512.00
2023-04-03T01:58:05.325Z,515.00
2023-04-03T01:59:05.333Z,516.00
2023-04-03T02:00:05.399Z,515.00
2023-04-03T02:01:05.480Z,513.00
2023-04-03T02:02:05.416Z,517.00
2023-04-03T02:03:05.439Z,518.00
2023-04-03T02:04:05.448Z,513.00
2023-04-03T02:05:05.428Z,515.00
2023-04-03T02:06:05.434Z,517.00
2023-04-03T02:07:05.446Z,513.00
2023-04-03T02:08:05.414Z,517.00
2023-04-03T02:09:05.448Z,517.00
2023-04-03T02:10:05.493Z,513.00
2023-04-03T02:11:05.475Z,516.00
2023-04-03T02:12:05.473Z,517.00
2023-04-03T02:13:05.459Z,518.00
2023-04-03T02:14:05.511Z,517.00
2023-04-03T02:15:05.443Z,516.00
2023-04-03T02:16:05.462Z,512.00
2023-04-03T02:17:05.460Z,516.00
2023-04-03T02:18:07.758Z,517.00
2023-04-03T02:19:05.459Z,512.00
2023-04-03T02:20:05.466Z,512.00
2023-04-03T02:21:05.477Z,517.00
2023-04-03T02:22:05.492Z,518.00
2023-04-03T02:23:05.446Z,518.00
2023-04-03T02:24:05.503Z,519.00
2023-04-03T02:25:05.459Z,514.00
2023-04-03T02:26:05.472Z,520.00
2023-04-03T02:27:05.464Z,518.00
2023-04-03T02:28:05.533Z,521.00
2023-04-03T02:29:05.616Z,516.00
2023-04-03T02:30:05.575Z,520.00
2023-04-03T02:31:05.710Z,520.00
2023-04-03T02:32:05.616Z,515.00
2023-04-03T02:33:05.672Z,514.00
2023-04-03T02:34:05.569Z,522.00
2023-04-03T02:35:05.632Z,517.00
2023-04-03T02:36:05.609Z,520.00
2023-04-03T02:37:05.597Z,518.00
2023-04-03T02:38:05.600Z,520.00
2023-04-03T02:39:05.610Z,517.00
2023-04-03T02:40:05.621Z,521.00
2023-04-03T02:41:05.616Z,517.00
2023-04-03T02:42:05.574Z,519.00
2023-04-03T02:43:05.591Z,518.00
2023-04-03T02:44:05.599Z,516.00
2023-04-03T02:45:05.592Z,519.00
2023-04-03T02:46:05.698Z,518.00
2023-04-03T02:47:05.680Z,518.00
2023-04-03T02:48:05.750Z,517.00
2023-04-03T02:49:05.637Z,517.00
2023-04-03T02:50:05.624Z,523.00
2023-04-03T02:51:05.641Z,515.00
2023-04-03T02:52:05.654Z,517.00
2023-04-03T02:53:05.699Z,518.00
2023-04-03T02:54:05.662Z,520.00
2023-04-03T02:55:05.665Z,516.00
2023-04-03T02:56:05.678Z,520.00
2023-04-03T02:57:05.698Z,516.00
2023-04-03T02:58:06.570Z,522.00
2023-04-03T02:59:05.695Z,515.00
2023-04-03T03:00:05.691Z,520.00
2023-04-03T03:01:05.704Z,517.00
2023-04-03T03:02:05.774Z,520.00
2023-04-03T03:03:05.850Z,518.00
2023-04-03T03:04:05.732Z,519.00
2023-04-03T03:05:05.799Z,520.00
2023-04-03T03:06:05.719Z,517.00
2023-04-03T03:07:05.751Z,517.00
2023-04-03T03:08:05.804Z,517.00
2023-04-03T03:09:05.764Z,518.00
2023-04-03T03:10:05.768Z,519.00
2023-04-03T03:11:05.792Z,521.00
2023-04-03T03:12:05.778Z,520.00
2023-04-03T03:13:05.806Z,511.00
2023-04-03T03:14:05.794Z,522.00
2023-04-03T03:15:05.801Z,520.00
2023-04-03T03:16:05.874Z,518.00
2023-04-03T03:17:05.815Z,519.00
2023-04-03T03:18:05.923Z,519.00
2023-04-03T03:19:05.823Z,520.00
2023-04-03T03:20:05.843Z,517.00
2023-04-03T03:21:05.862Z,520.00
2023-04-03T03:22:05.909Z,517.00
2023-04-03T03:23:06.463Z,519.00
2023-04-03T03:24:05.868Z,519.00
2023-04-03T03:25:05.867Z,521.00
2023-04-03T03:26:05.866Z,516.00
2023-04-03T03:27:05.880Z,518.00
2023-04-03T03:28:05.902Z,519.00
2023-04-03T03:29:05.907Z,522.00
2023-04-03T03:30:05.948Z,517.00
2023-04-03T03:31:05.968Z,520.00
2023-04-03T03:32:05.972Z,519.00
2023-04-03T03:33:06.018Z,521.00
2023-04-03T03:34:05.994Z,522.00
2023-04-03T03:35:05.982Z,519.00
2023-04-03T03:36:06.102Z,520.00
2023-04-03T03:37:05.996Z,522.00
2023-04-03T03:38:06.063Z,521.00
2023-04-03T03:39:06.042Z,516.00
2023-04-03T03:40:06.072Z,521.00
2023-04-03T03:41:06.076Z,520.00
2023-04-03T03:42:06.087Z,520.00
2023-04-03T03:43:06.136Z,518.00
2023-04-03T03:44:06.140Z,522.00
2023-04-03T03:45:06.110Z,518.00
2023-04-03T03:46:06.220Z,518.00
2023-04-03T03:47:06.179Z,522.00
2023-04-03T03:48:06.219Z,517.00
2023-04-03T03:49:06.245Z,522.00
2023-04-03T03:50:06.192Z,522.00
2023-04-03T03:51:06.177Z,520.00
2023-04-03T03:52:06.200Z,524.00
2023-04-03T03:53:06.222Z,519.00
2023-04-03T03:54:06.238Z,521.00
2023-04-03T03:55:06.238Z,519.00
2023-04-03T03:56:06.315Z,520.00
2023-04-03T03:57:06.286Z,522.00
2023-04-03T03:58:06.234Z,523.00
2023-04-03T03:59:06.311Z,518.00
2023-04-03T04:00:06.288Z,522.00
2023-04-03T04:01:06.258Z,522.00
2023-04-03T04:02:06.302Z,519.00
2023-04-03T04:03:06.352Z,520.00
2023-04-03T04:04:06.358Z,508.00
2023-04-03T04:05:06.328Z,500.00
2023-04-03T04:06:06.320Z,500.00
2023-04-03T04:07:06.332Z,503.00
2023-04-03T04:08:06.330Z,504.00
2023-04-03T04:09:06.268Z,500.00
2023-04-03T04:10:06.329Z,500.00
2023-04-03T04:11:06.327Z,500.00
2023-04-03T04:12:06.362Z,500.00
2023-04-03T04:13:06.314Z,500.00
2023-04-03T04:14:06.346Z,500.00
2023-04-03T04:15:06.372Z,515.00
2023-04-03T04:16:06.371Z,500.00
2023-04-03T04:17:06.381Z,499.00
2023-04-03T04:18:06.400Z,500.00
2023-04-03T04:19:08.442Z,499.00
2023-04-03T04:20:06.560Z,509.00
2023-04-03T04:21:06.554Z,511.00
2023-04-03T04:22:06.570Z,503.00
2023-04-03T04:23:06.549Z,520.00
2023-04-03T04:24:06.583Z,502.00
2023-04-03T04:25:06.572Z,504.00
2023-04-03T04:26:06.598Z,507.00
2023-04-03T04:27:06.584Z,504.00
2023-04-03T04:28:06.569Z,499.00
2023-04-03T04:29:06.623Z,515.00
2023-04-03T04:30:06.617Z,518.00
2023-04-03T04:31:06.643Z,524.00
2023-04-03T04:32:06.624Z,510.00
2023-04-03T04:33:06.671Z,512.00
2023-04-03T04:34:06.695Z,517.00
2023-04-03T04:35:06.690Z,506.00
2023-04-03T04:36:06.749Z,520.00
2023-04-03T04:37:06.743Z,521.00
2023-04-03T04:38:06.710Z,529.00
2023-04-03T04:39:06.746Z,543.00
2023-04-03T04:40:06.759Z,538.00
2023-04-03T04:41:06.772Z,538.00
2023-04-03T04:42:06.800Z,551.00
2023-04-03T04:43:06.802Z,547.00
2023-04-03T04:44:06.862Z,549.00
2023-04-03T04:45:06.870Z,552.00
2023-04-03T04:46:06.897Z,542.00
2023-04-03T04:47:06.946Z,556.00
2023-04-03T04:48:06.977Z,553.00
2023-04-03T04:49:07.002Z,562.00
2023-04-03T04:50:07.009Z,559.00
2023-04-03T04:51:07.028Z,566.00
2023-04-03T04:52:07.018Z,559.00
2023-04-03T04:53:07.064Z,569.00
2023-04-03T04:54:07.098Z,573.00
2023-04-03T04:55:07.149Z,570.00
2023-04-03T04:56:07.160Z,575.00
2023-04-03T04:57:07.160Z,571.00
2023-04-03T04:58:07.183Z,576.00
2023-04-03T04:59:07.201Z,575.00
2023-04-03T05:00:07.232Z,582.00
2023-04-03T05:01:07.304Z,582.00
2023-04-03T05:02:07.367Z,581.00
2023-04-03T05:03:07.374Z,588.00
2023-04-03T05:04:07.365Z,586.00
2023-04-03T05:05:07.415Z,587.00
2023-04-03T05:06:07.377Z,590.00
2023-04-03T05:07:07.391Z,586.00
2023-04-03T05:08:07.435Z,589.00
2023-04-03T05:09:07.445Z,591.00
2023-04-03T05:10:07.516Z,592.00
2023-04-03T05:11:07.509Z,594.00
2023-04-03T05:12:07.520Z,595.00
2023-04-03T05:13:07.590Z,598.00
2023-04-03T05:14:07.703Z,595.00
2023-04-03T05:15:07.584Z,598.00
2023-04-03T05:16:07.631Z,598.00
2023-04-03T05:17:07.635Z,603.00
2023-04-03T05:18:07.703Z,605.00
2023-04-03T05:19:07.688Z,603.00
2023-04-03T05:20:07.728Z,600.00
2023-04-03T05:21:07.755Z,601.00
2023-04-03T05:22:07.805Z,608.00
2023-04-03T05:23:07.796Z,604.00
2023-04-03T05:24:07.828Z,605.00
2023-04-03T05:25:07.856Z,601.00
2023-04-03T05:26:07.826Z,604.00
2023-04-03T05:27:07.900Z,607.00
2023-04-03T05:28:07.965Z,611.00
2023-04-03T05:29:07.936Z,608.00
2023-04-03T05:30:08.006Z,608.00
2023-04-03T05:31:08.024Z,605.00
2023-04-03T05:32:08.009Z,612.00
2023-04-03T05:33:08.057Z,610.00
2023-04-03T05:34:08.051Z,613.00
2023-04-03T05:35:08.137Z,614.00
2023-04-03T05:36:08.165Z,612.00
2023-04-03T05:37:08.142Z,613.00
2023-04-03T05:38:08.202Z,614.00
2023-04-03T05:39:08.197Z,614.00
2023-04-03T05:40:08.231Z,612.00
2023-04-03T05:41:08.284Z,614.00
2023-04-03T05:42:08.293Z,612.00
2023-04-03T05:43:08.289Z,613.00
2023-04-03T05:44:08.346Z,617.00
2023-04-03T05:45:08.363Z,619.00
2023-04-03T05:46:08.442Z,616.00
2023-04-03T05:47:08.420Z,621.00
2023-04-03T05:48:08.463Z,624.00
2023-04-03T05:49:08.489Z,620.00
2023-04-03T05:50:08.493Z,620.00
2023-04-03T05:51:08.504Z,617.00
2023-04-03T05:52:08.525Z,618.00
2023-04-03T05:53:08.555Z,618.00
2023-04-03T05:54:08.602Z,622.00
2023-04-03T05:55:08.635Z,622.00
2023-04-03T05:56:08.675Z,624.00
2023-04-03T05:57:08.712Z,619.00
2023-04-03T05:58:11.128Z,625.00
2023-04-03T05:59:08.716Z,622.00
2023-04-03T06:00:08.715Z,619.00
2023-04-03T06:01:08.679Z,626.00
2023-04-03T06:02:08.729Z,626.00
2023-04-03T06:03:08.827Z,623.00
2023-04-03T06:04:08.779Z,627.00
2023-04-03T06:05:08.735Z,624.00
2023-04-03T06:06:08.681Z,627.00
2023-04-03T06:07:08.718Z,623.00
2023-04-03T06:08:08.667Z,626.00
2023-04-03T06:09:08.641Z,624.00
2023-04-03T06:10:08.643Z,625.00
2023-04-03T06:11:08.605Z,623.00
2023-04-03T06:12:08.647Z,627.00
2023-04-03T06:13:08.618Z,626.00
2023-04-03T06:14:08.592Z,625.00
2023-04-03T06:15:08.676Z,632.00
2023-04-03T06:16:08.619Z,629.00
2023-04-03T06:17:08.689Z,627.00
2023-04-03T06:18:08.607Z,629.00
2023-04-03T06:19:08.586Z,625.00
2023-04-03T06:20:08.607Z,627.00
2023-04-03T06:21:08.547Z,629.00
2023-04-03T06:22:08.617Z,625.00
2023-04-03T06:23:08.752Z,627.00
2023-04-03T06:24:08.576Z,629.00
2023-04-03T06:25:08.599Z,628.00
2023-04-03T06:26:08.534Z,630.00
2023-04-03T06:27:08.564Z,629.00
2023-04-03T06:28:08.492Z,634.00
2023-04-03T06:29:08.505Z,630.00
2023-04-03T06:30:08.504Z,629.00
2023-04-03T06:31:08.524Z,633.00
2023-04-03T06:32:08.577Z,630.00
2023-04-03T06:33:08.499Z,632.00
2023-04-03T06:34:09.704Z,630.00
2023-04-03T06:35:08.493Z,634.00
2023-04-03T06:36:08.477Z,637.00
2023-04-03T06:37:08.456Z,633.00
2023-04-03T06:38:08.463Z,632.00
2023-04-03T06:39:08.467Z,632.00
2023-04-03T06:40:08.439Z,632.00
2023-04-03T06:41:08.413Z,635.00
2023-04-03T06:42:08.456Z,638.00
2023-04-03T06:43:08.472Z,631.00
2023-04-03T06:44:08.417Z,637.00
2023-04-03T06:45:08.421Z,637.00
2023-04-03T06:46:08.451Z,637.00
2023-04-03T06:47:08.410Z,639.00
2023-04-03T06:48:08.527Z,628.00
2023-04-03T06:49:08.379Z,634.00
2023-04-03T06:50:08.392Z,631.00
2023-04-03T06:51:08.371Z,635.00
2023-04-03T06:52:08.347Z,642.00
2023-04-03T06:53:08.370Z,637.00
2023-04-03T06:54:08.368Z,634.00
2023-04-03T06:55:08.370Z,640.00
2023-04-03T06:56:08.382Z,639.00
2023-04-03T06:57:08.349Z,636.00
2023-04-03T06:58:08.346Z,637.00
2023-04-03T06:59:08.306Z,636.00
2023-04-03T07:00:08.328Z,635.00
2023-04-03T07:01:08.311Z,638.00
2023-04-03T07:02:08.326Z,636.00
2023-04-03T07:03:08.432Z,635.00
2023-04-03T07:04:08.354Z,637.00
2023-04-03T07:05:08.327Z,636.00
2023-04-03T07:06:08.285Z,641.00
2023-04-03T07:07:08.246Z,639.00
2023-04-03T07:08:08.255Z,640.00
2023-04-03T07:09:08.210Z,639.00
2023-04-03T07:10:08.266Z,642.00
2023-04-03T07:11:08.243Z,643.00
2023-04-03T07:12:08.238Z,643.00
2023-04-03T07:13:08.251Z,635.00
2023-04-03T07:14:08.194Z,638.00
2023-04-03T07:15:08.259Z,640.00
2023-04-03T07:16:08.283Z,642.00
2023-04-03T07:17:08.412Z,643.00
2023-04-03T07:18:08.346Z,637.00
2023-04-03T07:19:08.313Z,644.00
2023-04-03T07:20:08.334Z,642.00
2023-04-03T07:21:08.359Z,640.00
2023-04-03T07:22:08.387Z,642.00
2023-04-03T07:23:08.423Z,646.00
2023-04-03T07:24:10.128Z,642.00
2023-04-03T07:25:08.427Z,643.00
2023-04-03T07:26:08.390Z,643.00
2023-04-03T07:27:08.425Z,644.00
2023-04-03T07:28:08.404Z,644.00
2023-04-03T07:29:08.401Z,647.00
2023-04-03T07:30:08.423Z,649.00
2023-04-03T07:31:08.407Z,648.00
2023-04-03T07:32:08.403Z,648.00
2023-04-03T07:33:08.435Z,650.00
2023-04-03T07:34:08.354Z,652.00
2023-04-03T07:35:08.370Z,646.00
2023-04-03T07:36:08.397Z,650.00
2023-04-03T07:37:08.347Z,651.00
2023-04-03T07:38:08.324Z,648.00
2023-04-03T07:39:08.311Z,646.00
2023-04-03T07:40:08.322Z,649.00
2023-04-03T07:41:08.336Z,646.00
2023-04-03T07:42:08.282Z,647.00
2023-04-03T07:43:08.288Z,649.00
2023-04-03T07:44:08.309Z,652.00
2023-04-03T07:45:08.329Z,656.00
2023-04-03T07:46:08.346Z,648.00
2023-04-03T07:47:08.308Z,651.00
2023-04-03T07:48:08.276Z,643.00
2023-04-03T07:49:08.296Z,651.00
2023-04-03T07:50:08.258Z,655.00
2023-04-03T07:51:08.241Z,661.00
2023-04-03T07:52:08.261Z,655.00
2023-04-03T07:53:08.225Z,658.00
2023-04-03T07:54:08.207Z,659.00
2023-04-03T07:55:08.234Z,656.00
2023-04-03T07:56:08.238Z,660.00
2023-04-03T07:57:08.194Z,663.00
2023-04-03T07:58:08.177Z,661.00
2023-04-03T07:59:08.200Z,660.00
2023-04-03T08:00:08.196Z,662.00
2023-04-03T08:01:08.213Z,660.00
2023-04-03T08:02:08.210Z,664.00
2023-04-03T08:03:09.722Z,660.00
2023-04-03T08:04:08.266Z,656.00
2023-04-03T08:05:08.323Z,663.00
2023-04-03T08:06:11.761Z,661.00
2023-04-03T08:07:09.172Z,662.00
2023-04-03T08:08:08.150Z,662.00
2023-04-03T08:09:08.179Z,663.00
2023-04-03T08:10:08.167Z,666.00
2023-04-03T08:11:08.132Z,670.00
2023-04-03T08:12:08.199Z,666.00
2023-04-03T08:13:08.144Z,669.00
2023-04-03T08:14:08.177Z,667.00
2023-04-03T08:15:08.115Z,664.00
2023-04-03T08:16:08.121Z,667.00
2023-04-03T08:17:08.113Z,664.00
2023-04-03T08:18:08.205Z,663.00
2023-04-03T08:19:12.392Z,667.00
2023-04-03T08:20:09.120Z,668.00
2023-04-03T08:21:08.106Z,668.00
2023-04-03T08:22:08.108Z,670.00
2023-04-03T08:23:08.098Z,669.00
2023-04-03T08:24:08.077Z,679.00
2023-04-03T08:25:08.082Z,675.00
2023-04-03T08:26:08.072Z,668.00
2023-04-03T08:27:08.035Z,675.00
2023-04-03T08:28:08.044Z,676.00
2023-04-03T08:29:08.049Z,676.00
2023-04-03T08:30:08.141Z,672.00
2023-04-03T08:31:08.067Z,673.00
2023-04-03T08:32:08.022Z,673.00
2023-04-03T08:33:08.072Z,679.00
2023-04-03T08:34:08.024Z,665.00
2023-04-03T08:35:08.033Z,677.00
2023-04-03T08:36:08.053Z,679.00
2023-04-03T08:37:07.998Z,674.00
2023-04-03T08:38:08.009Z,673.00
2023-04-03T08:39:07.950Z,678.00
2023-04-03T08:40:07.983Z,683.00
2023-04-03T08:41:07.962Z,666.00
2023-04-03T08:42:07.973Z,680.00
2023-04-03T08:43:08.046Z,666.00
2023-04-03T08:44:07.948Z,682.00
2023-04-03T08:45:07.953Z,673.00
2023-04-03T08:46:07.933Z,666.00
2023-04-03T08:47:07.901Z,673.00
2023-04-03T08:48:08.172Z,680.00
2023-04-03T08:49:08.057Z,677.00
2023-04-03T08:50:10.616Z,685.00
2023-04-03T08:52:08.104Z,700.00
2023-04-03T08:53:08.121Z,702.00
2023-04-03T08:54:08.045Z,700.00
2023-04-03T08:55:08.075Z,702.00
2023-04-03T08:56:08.081Z,704.00
2023-04-03T08:57:08.149Z,705.00
2023-04-03T08:58:08.054Z,696.00
2023-04-03T08:59:08.046Z,691.00
2023-04-03T09:00:08.060Z,703.00
2023-04-03T09:01:08.080Z,706.00
2023-04-03T09:02:08.149Z,677.00
2023-04-03T09:03:09.566Z,707.00
2023-04-03T09:04:08.130Z,708.00
2023-04-03T09:05:08.039Z,710.00
2023-04-03T09:06:08.049Z,708.00
2023-04-03T09:07:08.006Z,710.00
2023-04-03T09:08:07.977Z,699.00
2023-04-03T09:09:08.066Z,701.00
2023-04-03T09:10:07.963Z,713.00
2023-04-03T09:11:07.935Z,686.00
2023-04-03T09:12:07.976Z,704.00
2023-04-03T09:13:07.995Z,699.00
2023-04-03T09:14:07.983Z,718.00
2023-04-03T09:15:07.964Z,711.00
2023-04-03T09:16:08.054Z,695.00
2023-04-03T09:17:07.920Z,736.00
2023-04-03T09:18:07.955Z,742.00
2023-04-03T09:19:07.886Z,731.00
2023-04-03T09:20:07.987Z,730.00
2023-04-03T09:21:07.942Z,726.00
2023-04-03T09:22:07.868Z,720.00
2023-04-03T09:23:07.908Z,718.00
2023-04-03T09:24:07.881Z,720.00
2023-04-03T09:25:07.849Z,716.00
2023-04-03T09:26:07.866Z,715.00
2023-04-03T09:27:07.894Z,720.00
2023-04-03T09:28:07.886Z,702.00
2023-04-03T09:29:07.856Z,702.00
2023-04-03T09:30:07.859Z,705.00
2023-04-03T09:31:07.892Z,707.00
2023-04-03T09:32:07.870Z,716.00
2023-04-03T09:33:07.997Z,708.00
2023-04-03T09:34:07.819Z,711.00
2023-04-03T09:35:18.926Z,698.00
2023-04-03T09:36:08.909Z,700.00
2023-04-03T09:37:07.843Z,702.00
2023-04-03T09:38:07.808Z,710.00
2023-04-03T09:39:07.753Z,711.00
2023-04-03T09:40:07.770Z,719.00
2023-04-03T09:41:07.770Z,723.00
2023-04-03T09:42:07.733Z,713.00
2023-04-03T09:43:07.737Z,719.00
2023-04-03T09:44:07.757Z,720.00
2023-04-03T09:45:07.762Z,717.00
2023-04-03T09:46:07.762Z,715.00
2023-04-03T09:47:07.741Z,709.00
2023-04-03T09:48:08.543Z,714.00
2023-04-03T09:49:09.733Z,707.00
2023-04-03T09:50:07.735Z,709.00
2023-04-03T09:51:07.735Z,709.00
2023-04-03T09:52:07.769Z,710.00
2023-04-03T09:53:07.767Z,711.00
2023-04-03T09:54:07.711Z,727.00
2023-04-03T09:55:07.765Z,720.00
2023-04-03T09:56:07.758Z,722.00
2023-04-03T09:57:07.891Z,719.00
2023-04-03T09:58:07.857Z,719.00
2023-04-03T09:59:07.852Z,709.00
2023-04-03T10:00:07.904Z,715.00
2023-04-03T10:01:07.942Z,702.00
2023-04-03T10:02:07.916Z,715.00
2023-04-03T10:03:07.995Z,721.00
2023-04-03T10:04:08.230Z,707.00
2023-04-03T10:05:09.808Z,707.00
2023-04-03T10:06:07.998Z,707.00
2023-04-03T10:07:08.053Z,709.00
2023-04-03T10:08:08.874Z,711.00
2023-04-03T10:09:08.066Z,717.00
2023-04-03T10:10:08.130Z,712.00
2023-04-03T10:11:08.136Z,720.00
2023-04-03T10:12:08.138Z,712.00
2023-04-03T10:13:09.323Z,720.00
2023-04-03T10:14:09.475Z,708.00
2023-04-03T10:15:08.235Z,715.00
2023-04-03T10:16:08.337Z,707.00
2023-04-03T10:17:08.276Z,715.00
2023-04-03T10:18:21.576Z,711.00
2023-04-03T10:19:09.325Z,712.00
2023-04-03T10:20:08.281Z,713.00
2023-04-03T10:21:11.883Z,712.00
2023-04-03T10:22:09.318Z,712.00
2023-04-03T10:23:08.272Z,713.00
2023-04-03T10:24:08.352Z,717.00
2023-04-03T10:25:08.282Z,718.00
2023-04-03T10:26:08.300Z,716.00
2023-04-03T10:27:08.242Z,724.00
2023-04-03T10:28:08.230Z,712.00
2023-04-03T10:29:08.215Z,722.00
2023-04-03T10:30:08.264Z,720.00
2023-04-03T10:31:08.250Z,725.00
2023-04-03T10:32:08.176Z,712.00
2023-04-03T10:33:08.254Z,727.00
2023-04-03T10:34:08.222Z,710.00
2023-04-03T10:35:08.217Z,722.00
2023-04-03T10:36:08.233Z,720.00
2023-04-03T10:37:08.250Z,703.00
2023-04-03T10:38:08.146Z,716.00
2023-04-03T10:39:08.164Z,715.00
2023-04-03T10:40:08.238Z,717.00
2023-04-03T10:41:08.146Z,715.00
2023-04-03T10:43:08.110Z,719.00
2023-04-03T10:44:08.115Z,718.00
2023-04-03T10:45:08.160Z,718.00
2023-04-03T10:46:08.237Z,708.00
2023-04-03T10:47:08.115Z,707.00
2023-04-03T10:48:08.150Z,723.00
2023-04-03T10:49:08.117Z,708.00
2023-04-03T10:50:08.135Z,709.00
2023-04-03T10:51:08.082Z,714.00
2023-04-03T10:52:08.093Z,713.00
2023-04-03T10:53:08.093Z,704.00
2023-04-03T10:54:08.062Z,708.00
2023-04-03T10:55:08.074Z,717.00
2023-04-03T10:56:08.150Z,715.00
2023-04-03T10:57:12.544Z,701.00
2023-04-03T10:58:09.035Z,703.00
2023-04-03T10:59:08.060Z,705.00
2023-04-03T11:00:08.035Z,709.00
2023-04-03T11:01:08.191Z,718.00
2023-04-03T11:02:08.005Z,721.00
2023-04-03T11:03:08.132Z,717.00
2023-04-03T11:04:08.201Z,711.00
2023-04-03T11:05:08.037Z,723.00
2023-04-03T11:06:08.007Z,705.00
2023-04-03T11:07:07.999Z,702.00
2023-04-03T11:08:08.014Z,724.00
2023-04-03T11:09:07.985Z,714.00
2023-04-03T11:10:07.967Z,708.00
2023-04-03T11:11:07.977Z,711.00
2023-04-03T11:12:08.030Z,715.00
2023-04-03T11:13:07.990Z,708.00
2023-04-03T11:14:08.008Z,718.00
2023-04-03T11:15:07.931Z,717.00
2023-04-03T11:16:08.026Z,718.00
2023-04-03T11:17:07.950Z,721.00
2023-04-03T11:18:10.363Z,712.00
2023-04-03T11:19:08.049Z,711.00
2023-04-03T11:20:08.025Z,705.00
2023-04-03T11:21:08.095Z,713.00
2023-04-03T11:22:08.073Z,709.00
2023-04-03T11:23:08.136Z,718.00
2023-04-03T11:24:08.089Z,723.00
2023-04-03T11:25:08.127Z,699.00
2023-04-03T11:26:08.138Z,709.00
2023-04-03T11:27:08.118Z,713.00
2023-04-03T11:28:08.206Z,711.00
2023-04-03T11:29:08.155Z,724.00
2023-04-03T11:30:08.159Z,715.00
2023-04-03T11:31:08.161Z,717.00
2023-04-03T11:32:08.208Z,708.00
2023-04-03T11:33:08.234Z,721.00
2023-04-03T11:34:08.221Z,716.00
2023-04-03T11:35:08.278Z,724.00
2023-04-03T11:36:19.056Z,718.00
2023-04-03T11:37:09.202Z,719.00
2023-04-03T11:38:08.223Z,719.00
2023-04-03T11:39:08.180Z,711.00
2023-04-03T11:40:08.182Z,721.00
2023-04-03T11:41:08.133Z,706.00
2023-04-03T11:42:13.160Z,720.00
2023-04-03T11:43:09.217Z,721.00
2023-04-03T11:44:08.210Z,722.00
2023-04-03T11:45:08.123Z,722.00
2023-04-03T11:46:08.113Z,721.00
2023-04-03T11:47:08.196Z,713.00
2023-04-03T11:48:23.503Z,721.00
2023-04-03T11:49:09.108Z,723.00
2023-04-03T11:50:08.133Z,723.00
2023-04-03T11:51:08.133Z,723.00
2023-04-03T11:52:08.083Z,721.00
2023-04-03T11:53:08.097Z,724.00
2023-04-03T11:54:08.122Z,722.00
2023-04-03T11:55:08.099Z,720.00
2023-04-03T11:56:08.068Z,724.00
2023-04-03T11:57:08.101Z,721.00
2023-04-03T11:58:08.019Z,724.00
2023-04-03T11:59:08.029Z,723.00
2023-04-03T12:00:08.121Z,693.00
2023-04-03T12:01:08.119Z,729.00
2023-04-03T12:02:08.057Z,730.00
2023-04-03T12:03:08.143Z,720.00
2023-04-03T12:04:08.208Z,722.00
2023-04-03T12:05:08.055Z,727.00
2023-04-03T12:06:08.195Z,717.00
2023-04-03T12:07:08.038Z,716.00
2023-04-03T12:08:07.988Z,721.00
2023-04-03T12:09:07.985Z,716.00
2023-04-03T12:10:08.768Z,709.00
2023-04-03T12:11:08.000Z,724.00
2023-04-03T12:12:07.962Z,723.00
2023-04-03T12:13:07.976Z,726.00
2023-04-03T12:14:07.996Z,723.00
2023-04-03T12:15:07.917Z,714.00
2023-04-03T12:16:08.030Z,725.00
2023-04-03T12:17:08.059Z,723.00
2023-04-03T12:18:08.022Z,718.00
2023-04-03T12:19:07.879Z,716.00
2023-04-03T12:20:07.929Z,714.00
2023-04-03T12:21:07.925Z,719.00
2023-04-03T12:22:07.858Z,721.00
2023-04-03T12:23:08.006Z,717.00
2023-04-03T12:24:07.884Z,717.00
2023-04-03T12:25:07.881Z,708.00
2023-04-03T12:26:07.862Z,721.00
2023-04-03T12:27:07.888Z,730.00
2023-04-03T12:28:07.871Z,720.00
2023-04-03T12:29:07.888Z,714.00
2023-04-03T12:30:07.898Z,722.00